createdAt,value
2022-07-25T06:15:22.624Z,87.21
2022-07-25T14:09:04.487Z,56.45
2022-07-25T14:11:32.783Z,55.49
2022-07-25T14:14:01.405Z,55.71
2022-07-25T14:16:29.678Z,56.41
2022-07-25T14:18:57.094Z,56.13
2022-07-25T14:21:25.452Z,57.26
2022-07-25T14:23:53.767Z,61.41
2022-07-25T14:26:21.929Z,61.83
2022-07-25T14:28:49.473Z,62.47
2022-07-25T14:31:18.733Z,62.56
2022-07-25T14:33:47.107Z,62.36
2022-07-25T14:36:14.507Z,62.98
2022-07-25T14:38:42.037Z,63.03
2022-07-25T14:41:13.053Z,64.30
2022-07-25T14:43:55.700Z,64.93
2022-07-25T14:46:23.317Z,64.93
2022-07-25T14:48:52.794Z,64.82
2022-07-25T14:51:20.723Z,65.38
2022-07-25T14:53:52.989Z,65.78
2022-07-25T14:56:20.860Z,65.56
2022-07-25T14:58:48.299Z,65.42
2022-07-25T15:01:18.990Z,68.20
2022-07-25T15:03:46.865Z,69.48
2022-07-25T15:06:17.500Z,71.42
2022-07-25T15:08:45.974Z,70.29
2022-07-25T15:11:13.706Z,72.01
2022-07-25T15:13:42.544Z,73.16
2022-07-25T15:16:10.298Z,72.44
2022-07-25T15:18:52.525Z,73.83
2022-07-25T15:21:26.629Z,72.77
2022-07-25T15:23:54.332Z,72.78
2022-07-25T15:26:21.834Z,73.94
2022-07-25T15:28:49.828Z,74.52
2022-07-25T15:31:17.591Z,75.03
2022-07-25T15:33:45.307Z,75.59
2022-07-25T15:36:13.069Z,77.33
2022-07-25T15:38:41.222Z,80.08
2022-07-25T15:41:10.816Z,80.27
2022-07-25T15:43:39.037Z,80.54
2022-07-25T15:46:06.746Z,82.02
2022-07-25T15:48:35.314Z,82.18
2022-07-25T15:51:03.210Z,82.48
2022-07-25T15:53:30.714Z,81.43
2022-07-25T15:55:58.266Z,82.23
2022-07-25T15:58:26.973Z,81.73
2022-07-25T16:00:54.543Z,78.08
2022-07-25T16:03:24.164Z,78.06
2022-07-25T16:05:51.887Z,76.76
2022-07-25T16:08:19.473Z,75.63
2022-07-25T16:10:50.210Z,74.20
2022-07-25T16:13:18.168Z,71.77
2022-07-25T16:15:45.895Z,71.48
2022-07-25T16:18:13.504Z,73.44
2022-07-25T16:20:41.714Z,70.67
2022-07-25T16:23:09.963Z,69.60
2022-07-25T16:25:37.537Z,69.02
2022-07-25T16:28:07.420Z,68.59
2022-07-25T16:30:35.938Z,68.84
2022-07-25T16:33:03.507Z,67.68
2022-07-25T16:35:33.805Z,67.36
2022-07-25T16:38:01.486Z,69.26
2022-07-25T16:40:30.885Z,67.87
2022-07-25T16:42:59.531Z,68.78
2022-07-25T16:45:28.145Z,69.85
2022-07-25T16:47:55.613Z,70.39
2022-07-25T16:50:23.331Z,70.53
2022-07-25T16:52:50.902Z,70.32
2022-07-25T16:55:18.477Z,70.67
2022-07-25T16:57:47.834Z,70.94
2022-07-25T17:00:15.506Z,71.33
2022-07-25T17:02:44.160Z,71.79
2022-07-25T17:05:12.097Z,72.30
2022-07-25T17:07:40.076Z,72.12
2022-07-25T17:10:08.758Z,73.13
2022-07-25T17:12:36.402Z,74.77
2022-07-25T17:15:04.717Z,73.22
2022-07-25T17:17:32.259Z,73.90
2022-07-25T17:20:00.289Z,74.48
2022-07-25T17:22:28.103Z,73.99
2022-07-25T17:24:55.741Z,75.37
2022-07-25T17:27:23.473Z,75.31
2022-07-25T17:29:51.144Z,74.93
2022-07-25T17:32:18.903Z,75.11
2022-07-25T17:34:47.289Z,75.58
2022-07-25T17:37:14.948Z,78.36
2022-07-25T17:39:42.423Z,77.87
2022-07-25T17:42:10.019Z,77.14
2022-07-25T17:44:38.104Z,79.47
2022-07-25T17:47:06.506Z,78.78
2022-07-25T17:49:34.342Z,78.45
2022-07-25T17:52:01.875Z,79.00
2022-07-25T17:54:29.650Z,79.52
2022-07-25T17:56:58.659Z,79.37
2022-07-25T17:59:26.093Z,79.93
2022-07-25T18:01:53.597Z,81.11
2022-07-25T18:04:21.599Z,80.73
2022-07-25T18:06:50.224Z,82.09
2022-07-25T18:09:20.425Z,81.97
2022-07-25T18:11:51.031Z,83.78
2022-07-25T18:14:18.586Z,83.29
2022-07-25T18:16:46.444Z,82.86
2022-07-25T18:19:14.333Z,83.68
2022-07-25T18:21:42.515Z,83.42
2022-07-25T18:24:10.553Z,84.66
2022-07-25T18:26:39.605Z,83.67
2022-07-25T18:29:07.976Z,84.39
2022-07-25T18:31:36.410Z,84.59
2022-07-25T18:34:04.750Z,84.63
2022-07-25T18:36:33.091Z,84.87
2022-07-25T18:39:00.632Z,86.14
2022-07-25T18:41:30.072Z,85.91
2022-07-25T18:43:58.825Z,86.10
2022-07-25T18:46:30.269Z,86.12
2022-07-25T18:48:59.808Z,86.02
2022-07-25T18:51:27.649Z,86.56
2022-07-25T18:53:55.164Z,86.45
2022-07-25T18:56:28.032Z,86.85
2022-07-25T18:58:56.413Z,87.84
2022-07-25T19:01:29.583Z,88.55
2022-07-25T19:03:57.127Z,88.34
2022-07-25T19:06:24.721Z,85.29
2022-07-25T19:08:55.797Z,85.23
2022-07-25T19:11:23.514Z,85.64
2022-07-25T19:13:51.598Z,85.92
2022-07-25T19:16:19.702Z,86.29
2022-07-25T19:18:47.649Z,87.06
2022-07-25T19:21:17.054Z,86.86
2022-07-25T19:23:49.961Z,88.87
2022-07-25T19:26:18.479Z,87.93
2022-07-25T19:28:46.225Z,85.78
2022-07-25T19:31:15.310Z,87.63
2022-07-25T19:33:43.030Z,86.58
2022-07-25T19:36:10.586Z,85.51
2022-07-25T19:38:38.187Z,85.73
2022-07-25T19:41:08.355Z,84.81
2022-07-25T19:43:37.040Z,84.75
2022-07-25T19:46:04.664Z,86.04
2022-07-25T19:48:33.119Z,85.68
2022-07-25T19:51:00.893Z,86.75
2022-07-25T19:53:28.986Z,85.97
2022-07-25T19:55:56.613Z,86.78
2022-07-25T19:58:24.247Z,85.70
2022-07-25T20:00:51.957Z,86.53
2022-07-25T20:03:23.246Z,86.74
2022-07-25T20:05:52.197Z,87.14
2022-07-25T20:08:20.304Z,87.01
2022-07-25T20:10:48.525Z,87.52
2022-07-25T20:13:17.990Z,87.61
2022-07-25T20:15:46.317Z,88.51
2022-07-25T20:18:18.941Z,88.61
2022-07-25T20:20:47.512Z,88.91
2022-07-25T20:23:15.402Z,88.57
2022-07-25T20:25:43.063Z,88.15
2022-07-25T20:28:10.875Z,89.83
2022-07-25T20:30:40.112Z,89.81
2022-07-25T20:33:09.511Z,90.26
2022-07-25T20:35:38.860Z,90.18
2022-07-25T20:38:09.650Z,90.42
2022-07-25T20:40:49.390Z,90.30
2022-07-25T20:43:17.032Z,90.33
2022-07-25T20:45:45.094Z,90.19
2022-07-25T20:48:15.102Z,91.78
2022-07-25T20:50:43.315Z,90.88
2022-07-25T20:53:11.571Z,90.12
2022-07-25T20:55:39.082Z,91.05
2022-07-25T20:58:06.696Z,90.44
2022-07-25T21:00:35.196Z,91.61
2022-07-25T21:03:02.917Z,91.12
2022-07-25T21:05:31.662Z,92.41
2022-07-25T21:07:59.931Z,91.96
2022-07-25T21:10:27.840Z,91.66
2022-07-25T21:12:56.851Z,92.09
2022-07-25T21:15:25.240Z,92.68
2022-07-25T21:17:54.162Z,92.24
2022-07-25T21:20:21.918Z,91.92
2022-07-25T21:22:50.832Z,92.17
2022-07-25T21:25:21.137Z,91.17
2022-07-25T21:27:49.270Z,90.18
2022-07-25T21:30:16.678Z,89.82
2022-07-25T21:32:45.117Z,91.05
2022-07-25T21:35:12.945Z,91.56
2022-07-25T21:37:40.356Z,89.76
2022-07-25T21:40:08.818Z,89.84
2022-07-25T21:42:37.028Z,91.33
2022-07-25T21:45:05.811Z,90.76
2022-07-25T21:47:33.788Z,89.75
2022-07-25T21:50:24.818Z,89.62
2022-07-25T21:52:54.004Z,89.06
2022-07-25T21:55:22.475Z,88.27
2022-07-25T21:57:54.296Z,86.67
2022-07-25T22:00:22.532Z,90.38
2022-07-25T22:02:51.305Z,92.70
2022-07-25T22:05:19.728Z,91.87
2022-07-25T22:07:48.412Z,90.12
2022-07-25T22:10:17.894Z,90.48
2022-07-25T22:12:46.572Z,92.04
2022-07-25T22:15:14.825Z,93.15
2022-07-25T22:17:48.232Z,93.14
2022-07-25T22:20:19.641Z,92.16
2022-07-25T22:22:48.137Z,92.73
2022-07-25T22:25:16.485Z,92.69
2022-07-25T22:27:45.364Z,91.81
2022-07-25T22:30:18.494Z,91.09
2022-07-25T22:32:48.537Z,91.11
2022-07-25T22:35:16.581Z,91.12
2022-07-25T22:37:47.094Z,90.46
2022-07-25T22:40:14.965Z,91.00
2022-07-25T22:42:42.874Z,90.45
2022-07-25T22:45:11.075Z,90.32
2022-07-25T22:47:39.168Z,90.19
2022-07-25T22:50:07.732Z,91.14
2022-07-25T22:52:35.637Z,90.23
2022-07-25T22:55:04.145Z,88.97
2022-07-25T22:57:37.326Z,89.30
2022-07-25T23:00:11.365Z,89.79
2022-07-25T23:02:39.878Z,89.90
2022-07-25T23:05:08.967Z,90.67
2022-07-25T23:07:38.810Z,91.15
2022-07-25T23:10:07.527Z,90.36
2022-07-25T23:12:36.134Z,91.55
2022-07-25T23:15:05.505Z,90.95
2022-07-25T23:17:33.094Z,90.89
2022-07-25T23:20:01.132Z,90.29
2022-07-25T23:22:30.324Z,92.50
2022-07-25T23:24:58.856Z,92.57
2022-07-25T23:27:27.396Z,93.53
2022-07-25T23:29:55.617Z,95.02
2022-07-25T23:32:23.121Z,96.12
2022-07-25T23:34:51.134Z,96.07
2022-07-25T23:37:18.864Z,97.46
2022-07-25T23:39:46.324Z,97.16
2022-07-25T23:42:19.244Z,97.94
2022-07-25T23:44:46.917Z,99.60
2022-07-25T23:47:14.672Z,99.82
2022-07-25T23:49:43.093Z,98.18
2022-07-25T23:52:10.771Z,96.47
2022-07-25T23:54:40.730Z,95.79
2022-07-25T23:57:08.799Z,97.24
2022-07-25T23:59:36.656Z,97.05
